Time;durP1;ratioP1;P1;durP2;ratioP2;P2;SDS_P1;SDS_P2;PMS_P1;PMS_P2;Temp;Humidity;BMP_temperature;BMP_pressure;BME280_temperature;BME280_humidity;BME280_pressure;Samples;Min_cycle;Max_cycle;Signal;HPM_P1;HPM_P2
2021/07/01 00:00:18;;;;;;;;;;;15.20;99.90;;;;;;5008485;28;19906;-77
2021/07/01 00:02:44;;;;;;;;;;;15.20;99.90;;;;;;5008158;28;19913;-77
2021/07/01 00:05:11;;;;;;;;;;;15.20;99.90;;;;;;4992140;28;19913;-77
2021/07/01 00:07:37;;;;;;;;;;;15.30;99.90;;;;;;4992000;28;19959;-77
2021/07/01 00:10:10;;;;;;;;;;;15.20;99.90;;;;;;4991815;28;19914;-77
2021/07/01 00:12:36;;;;;;;;;;;15.20;99.90;;;;;;4992953;28;20356;-77
2021/07/01 00:15:02;;;;;;;;;;;15.20;99.90;;;;;;4991948;28;19912;-77
2021/07/01 00:17:28;;;;;;;;;;;15.20;99.90;;;;;;5008355;28;20420;-77
2021/07/01 00:19:53;;;;;;;;;;;15.20;99.90;;;;;;5008343;28;19952;-77
2021/07/01 00:22:18;;;;;;;;;;;15.20;99.90;;;;;;4991823;28;19936;-77
2021/07/01 00:24:44;;;;;;;;;;;15.20;99.90;;;;;;4992241;28;20047;-77
2021/07/01 00:27:09;;;;;;;;;;;15.20;99.90;;;;;;4995980;28;20280;-77
2021/07/01 00:29:35;;;;;;;;;;;15.20;99.90;;;;;;4997088;28;19992;-77
2021/07/01 00:32:00;;;;;;;;;;;15.20;99.90;;;;;;4996860;28;19910;-77
2021/07/01 00:34:26;;;;;;;;;;;15.20;99.90;;;;;;4997042;28;19906;-77
2021/07/01 00:36:51;;;;;;;;;;;15.20;99.90;;;;;;5012005;28;20423;-77
2021/07/01 00:39:17;;;;;;;;;;;15.10;99.90;;;;;;5012097;28;19920;-77
2021/07/01 00:41:42;;;;;;;;;;;15.20;99.90;;;;;;4995464;28;19913;-77
2021/07/01 00:44:08;;;;;;;;;;;15.10;99.90;;;;;;4995548;28;19906;-77
2021/07/01 00:46:33;;;;;;;;;;;15.20;99.90;;;;;;5011947;28;19913;-77
2021/07/01 00:48:59;;;;;;;;;;;15.20;99.90;;;;;;4996615;28;20005;-77
2021/07/01 00:51:24;;;;;;;;;;;15.20;99.90;;;;;;4996750;28;19913;-77
2021/07/01 00:53:50;;;;;;;;;;;15.20;99.90;;;;;;4996544;28;19952;-77
2021/07/01 00:56:16;;;;;;;;;;;15.20;99.90;;;;;;4997434;28;19921;-78
2021/07/01 00:58:41;;;;;;;;;;;15.20;99.90;;;;;;4998393;28;19906;-78
2021/07/01 01:01:07;;;;;;;;;;;15.20;99.90;;;;;;4996901;28;19905;-78
2021/07/01 01:03:34;;;;;;;;;;;15.20;99.90;;;;;;4995717;28;19957;-77
2021/07/01 01:06:00;;;;;;;;;;;15.20;99.90;;;;;;4996533;28;20267;-77
2021/07/01 01:08:26;;;;;;;;;;;15.20;99.90;;;;;;4996317;28;19921;-77
2021/07/01 01:10:52;;;;;;;;;;;15.20;99.90;;;;;;4996529;28;20193;-77
2021/07/01 01:13:24;;;;;;;;;;;15.20;99.90;;;;;;4996067;28;19912;-77
2021/07/01 01:15:57;;;;;;;;;;;15.20;99.90;;;;;;4996494;28;19913;-77
2021/07/01 01:18:23;;;;;;;;;;;15.10;99.90;;;;;;4996288;28;19992;-77
2021/07/01 01:20:49;;;;;;;;;;;15.20;99.90;;;;;;4995129;28;19948;-77
2021/07/01 01:23:15;;;;;;;;;;;15.20;99.90;;;;;;4995897;28;19910;-77
2021/07/01 01:25:46;;;;;;;;;;;15.20;99.90;;;;;;4996178;28;19905;-77
2021/07/01 01:28:11;;;;;;;;;;;15.10;99.90;;;;;;4994956;28;19909;-77
2021/07/01 01:30:38;;;;;;;;;;;15.10;99.90;;;;;;4994920;28;20008;-77
2021/07/01 01:33:05;;;;;;;;;;;15.10;99.90;;;;;;4995660;28;19913;-77
2021/07/01 01:35:30;;;;;;;;;;;15.10;99.90;;;;;;5010946;28;20383;-77
2021/07/01 01:37:55;;;;;;;;;;;15.20;99.90;;;;;;4993442;28;19906;-77
2021/07/01 01:40:21;;;;;;;;;;;15.10;99.90;;;;;;5011048;28;19905;-77
2021/07/01 01:42:46;;;;;;;;;;;15.20;99.90;;;;;;4995494;28;19910;-77
2021/07/01 01:45:12;;;;;;;;;;;15.20;99.90;;;;;;4996177;28;20000;-77
2021/07/01 01:47:37;;;;;;;;;;;15.20;99.90;;;;;;4995707;28;19906;-77
2021/07/01 01:50:03;;;;;;;;;;;15.10;99.90;;;;;;4994456;28;20323;-77
2021/07/01 01:52:28;;;;;;;;;;;15.10;99.90;;;;;;4995337;28;19912;-77
2021/07/01 01:54:54;;;;;;;;;;;15.00;99.90;;;;;;4995400;28;20370;-77
2021/07/01 01:57:26;;;;;;;;;;;15.00;99.90;;;;;;5010610;28;19905;-77
2021/07/01 01:59:51;;;;;;;;;;;15.10;99.90;;;;;;5010730;28;19913;-77
2021/07/01 02:02:17;;;;;;;;;;;15.10;99.90;;;;;;4993971;28;20471;-77
2021/07/01 02:04:42;;;;;;;;;;;15.20;99.90;;;;;;4994077;28;20341;-77
2021/07/01 02:07:07;;;;;;;;;;;15.20;99.90;;;;;;4994027;28;19906;-77
2021/07/01 02:09:33;;;;;;;6.40;4.88;;;15.10;99.90;;;;;;4993393;28;19960;-77
2021/07/01 02:11:58;;;;;;;;;;;15.10;99.90;;;;;;4995176;28;19920;-77
2021/07/01 02:14:24;;;;;;;;;;;15.20;99.90;;;;;;4995131;28;19913;-77
2021/07/01 02:16:49;;;;;;;;;;;15.20;99.90;;;;;;4993952;28;19913;-77
2021/07/01 02:19:15;;;;;;;;;;;15.20;99.90;;;;;;4993836;28;19912;-77
2021/07/01 02:21:40;;;;;;;;;;;15.20;99.90;;;;;;4994670;28;20013;-77
2021/07/01 02:24:06;;;;;;;;;;;15.10;99.90;;;;;;4994784;28;19921;-77
2021/07/01 02:26:31;;;;;;;;;;;15.10;99.90;;;;;;4993677;28;19912;-77
2021/07/01 02:28:57;;;;;;;;;;;15.10;99.90;;;;;;5010052;28;20427;-77
2021/07/01 02:31:22;;;;;;;;;;;15.20;99.90;;;;;;4993543;28;19956;-77
2021/07/01 02:33:47;;;;;;;;;;;15.20;99.90;;;;;;4994572;28;19906;-77
2021/07/01 02:36:13;;;;;;;;;;;15.20;99.90;;;;;;4993512;28;19909;-77
2021/07/01 02:38:38;;;;;;;;;;;15.20;99.90;;;;;;5009708;28;19917;-77
2021/07/01 02:41:04;;;;;;;;;;;15.20;99.90;;;;;;4994669;28;19912;-77
2021/07/01 02:43:29;;;;;;;;;;;15.20;99.90;;;;;;4993357;28;20359;-77
2021/07/01 02:45:56;;;;;;;8.05;5.82;;;15.20;99.90;;;;;;5009405;28;19906;-77
2021/07/01 02:48:22;;;;;;;6.85;5.30;;;15.20;99.90;;;;;;4992509;28;20030;-77
2021/07/01 02:50:47;;;;;;;7.20;5.30;;;15.20;99.90;;;;;;4994048;28;20078;-77
2021/07/01 02:53:13;;;;;;;6.38;4.85;;;15.20;99.90;;;;;;4992402;28;20070;-77
2021/07/01 02:55:38;;;;;;;9.18;5.22;;;15.20;99.90;;;;;;4994056;28;20072;-77
2021/07/01 02:58:04;;;;;;;6.80;4.65;;;15.20;99.90;;;;;;4992704;28;20022;-77
2021/07/01 03:00:30;;;;;;;5.25;4.20;;;15.20;99.90;;;;;;5009035;28;20042;-78
2021/07/01 03:02:55;;;;;;;6.95;3.97;;;15.20;99.90;;;;;;4993410;28;20037;-77
2021/07/01 03:05:21;;;;;;;10.15;4.03;;;15.20;99.90;;;;;;4992474;28;20030;-77
2021/07/01 03:07:46;;;;;;;7.45;4.10;;;15.30;99.90;;;;;;5008897;28;20037;-77
2021/07/01 03:10:12;;;;;;;;;;;15.20;99.90;;;;;;4994079;28;19913;-77
2021/07/01 03:12:37;;;;;;;;;;;15.20;99.90;;;;;;4992665;28;19906;-77
2021/07/01 03:15:03;;;;;;;;;;;15.10;99.90;;;;;;4992741;28;19913;-77
2021/07/01 03:17:29;;;;;;;;;;;15.10;99.90;;;;;;4994149;28;19906;-77
2021/07/01 03:19:54;;;;;;;;;;;15.10;99.90;;;;;;4992703;28;20343;-77
2021/07/01 03:22:20;;;;;;;;;;;15.10;99.90;;;;;;4992384;28;20008;-77
2021/07/01 03:24:45;;;;;;;;;;;15.10;99.90;;;;;;4992535;28;19921;-77
2021/07/01 03:27:11;;;;;;;;;;;15.10;99.90;;;;;;4992604;28;19905;-77
2021/07/01 03:29:36;;;;;;;;;;;15.10;99.90;;;;;;4992566;28;19905;-77
2021/07/01 03:32:01;;;;;;;;;;;15.00;99.90;;;;;;5008459;28;19906;-77
2021/07/01 03:34:27;;;;;;;;;;;15.00;99.90;;;;;;4992220;28;20384;-77
2021/07/01 03:36:52;;;;;;;;;;;15.00;99.90;;;;;;4992362;28;19913;-77
2021/07/01 03:39:18;;;;;;;;;;;15.10;99.90;;;;;;4993453;28;19906;-77
2021/07/01 03:41:43;;;;;;;;;;;15.00;99.90;;;;;;5008478;28;19913;-77
2021/07/01 03:44:10;;;;;;;;;;;15.00;99.90;;;;;;4992175;28;19960;-77
2021/07/01 03:46:37;;;;;;;;;;;15.00;99.90;;;;;;4993609;28;19930;-77
2021/07/01 03:49:03;;;;;;;;;;;15.00;99.90;;;;;;4993458;28;19928;-77
2021/07/01 03:51:28;;;;;;;;;;;15.00;99.90;;;;;;4992444;28;20004;-79
2021/07/01 03:53:54;;;;;;;;;;;15.00;99.90;;;;;;5008775;28;20188;-78
2021/07/01 03:56:19;;;;;;;;;;;15.00;99.90;;;;;;5008759;28;19910;-78
2021/07/01 03:58:44;;;;;;;;;;;15.00;99.90;;;;;;4992026;28;19928;-77
2021/07/01 04:01:10;;;;;;;;;;;15.00;99.90;;;;;;4991348;28;19938;-77
2021/07/01 04:03:35;;;;;;;;;;;15.00;99.90;;;;;;5008128;28;19910;-77
2021/07/01 04:06:02;;;;;;;;;;;15.00;99.90;;;;;;4991919;28;19913;-77
2021/07/01 04:08:28;;;;;;;;;;;15.00;99.90;;;;;;5008338;28;20419;-77
2021/07/01 04:10:54;;;;;;;;;;;15.00;99.90;;;;;;4991947;28;19996;-77
2021/07/01 04:13:19;;;;;;;;;;;15.00;99.90;;;;;;4991713;28;20048;-77
2021/07/01 04:15:45;;;;;;;;;;;15.00;99.90;;;;;;4993199;28;20390;-77
2021/07/01 04:18:11;;;;;;;;;;;15.00;99.90;;;;;;4993157;28;19912;-77
2021/07/01 04:20:37;;;;;;;;;;;14.90;99.90;;;;;;4993002;28;19913;-77
2021/07/01 04:23:02;;;;;;;;;;;14.90;99.90;;;;;;4991280;28;20303;-77
2021/07/01 04:25:28;;;;;;;;;;;14.90;99.90;;;;;;4992929;28;20389;-77
2021/07/01 04:27:54;;;;;;;;;;;14.90;99.90;;;;;;4991922;28;19906;-77
2021/07/01 04:30:19;;;;;;;;;;;14.90;99.90;;;;;;4991807;28;19910;-77
2021/07/01 04:32:45;;;;;;;;;;;15.00;99.90;;;;;;4991488;28;19950;-77
2021/07/01 04:35:10;;;;;;;;;;;15.00;99.90;;;;;;4991580;28;19906;-77
2021/07/01 04:37:35;;;;;;;;;;;15.00;99.90;;;;;;4992850;28;20637;-77
2021/07/01 04:40:05;;;;;;;;;;;15.00;99.90;;;;;;4992748;28;19913;-77
2021/07/01 04:42:31;;;;;;;;;;;15.00;99.90;;;;;;4992332;28;20288;-77
2021/07/01 04:44:56;;;;;;;;;;;15.10;99.90;;;;;;4990544;28;19906;-77
2021/07/01 04:47:22;;;;;;;;;;;15.10;99.90;;;;;;4989738;28;20288;-77
2021/07/01 04:49:47;;;;;;;;;;;15.10;99.90;;;;;;4991748;28;19948;-77
2021/07/01 04:52:13;;;;;;;;;;;15.10;99.90;;;;;;4992033;28;20226;-77
2021/07/01 04:54:38;;;;;;;;;;;15.00;99.90;;;;;;4990080;28;20365;-77
2021/07/01 04:57:05;;;;;;;;;;;15.10;99.90;;;;;;4991963;28;19928;-77
2021/07/01 04:59:30;;;;;;;;;;;15.10;99.90;;;;;;4990341;28;20008;-77
2021/07/01 05:01:56;;;;;;;;;;;15.10;99.90;;;;;;5021323;28;19964;-77
2021/07/01 05:04:21;;;;;;;;;;;15.10;99.90;;;;;;5009665;28;19992;-77
2021/07/01 05:06:47;;;;;;;;;;;15.10;99.90;;;;;;5011093;28;19909;-78
2021/07/01 05:09:12;;;;;;;;;;;15.10;99.90;;;;;;5010918;28;19913;-77
2021/07/01 05:11:38;;;;;;;;;;;15.10;99.90;;;;;;5013107;28;19905;-77
2021/07/01 05:14:04;;;;;;;;;;;15.20;99.90;;;;;;5013466;28;19905;-77
2021/07/01 05:16:30;;;;;;;;;;;15.30;99.90;;;;;;5014775;28;19909;-77
2021/07/01 05:18:59;;;;;;;;;;;15.40;99.90;;;;;;5014337;28;19952;-77
2021/07/01 05:21:24;;;;;;;;;;;15.40;99.90;;;;;;5013324;28;19906;-77
2021/07/01 05:23:50;;;;;;;;;;;15.50;99.90;;;;;;5029398;28;19932;-77
2021/07/01 05:26:16;;;;;;;;;;;15.50;99.90;;;;;;5012742;28;19906;-77
2021/07/01 05:28:41;;;;;;;;;;;15.50;99.90;;;;;;5013047;28;19912;-78
2021/07/01 05:31:07;;;;;;;;;;;15.60;99.90;;;;;;5029802;28;19911;-77
2021/07/01 05:33:32;;;;;;;;;;;15.50;99.90;;;;;;5029446;28;19912;-77
2021/07/01 05:35:58;;;;;;;;;;;15.60;99.90;;;;;;5012951;28;19910;-77
2021/07/01 05:38:24;;;;;;;;;;;15.60;99.90;;;;;;5010392;28;20008;-77
2021/07/01 05:40:49;;;;;;;;;;;15.60;99.90;;;;;;4995801;28;19996;-78
2021/07/01 05:43:15;;;;;;;;;;;15.60;99.90;;;;;;5002312;28;20364;-77
2021/07/01 05:45:40;;;;;;;;;;;15.70;99.90;;;;;;5029722;28;19971;-77
2021/07/01 05:48:08;;;;;;;;;;;15.60;99.90;;;;;;5029247;28;20153;-78
2021/07/01 05:50:41;;;;;;;;;;;15.60;99.90;;;;;;5013073;28;19960;-77
2021/07/01 05:53:08;;;;;;;;;;;15.60;99.90;;;;;;5005045;28;19906;-77
2021/07/01 05:55:33;;;;;;;;;;;15.60;99.90;;;;;;4994957;28;20383;-78
2021/07/01 05:57:59;;;;;;;;;;;15.60;99.90;;;;;;5008745;28;19905;-77
2021/07/01 06:00:25;;;;;;;;;;;15.70;99.90;;;;;;4993133;28;19910;-77
2021/07/01 06:02:50;;;;;;;;;;;15.70;99.90;;;;;;5005857;28;19975;-77
2021/07/01 06:05:16;;;;;;;;;;;15.70;99.90;;;;;;5013980;28;19905;-77
2021/07/01 06:07:43;;;;;;;;;;;15.60;99.90;;;;;;5012496;28;20080;-77
2021/07/01 06:10:10;;;;;;;;;;;15.70;99.90;;;;;;5013488;28;19966;-77
2021/07/01 06:12:35;;;;;;;;;;;15.70;99.90;;;;;;5012063;28;19906;-76
2021/07/01 06:15:01;;;;;;;;;;;15.80;99.90;;;;;;5012442;28;20459;-77
2021/07/01 06:17:27;;;;;;;;;;;15.90;99.90;;;;;;5014141;28;19951;-77
2021/07/01 06:19:53;;;;;;;;;;;15.90;99.90;;;;;;5014198;28;19951;-77
2021/07/01 06:22:21;;;;;;;;;;;15.80;99.90;;;;;;5013422;28;20004;-77
2021/07/01 06:24:49;;;;;;;;;;;15.80;99.90;;;;;;5012740;28;19906;-77
2021/07/01 06:27:16;;;;;;;;;;;15.80;99.90;;;;;;5012871;28;19905;-77
2021/07/01 06:29:41;;;;;;;;;;;15.80;99.90;;;;;;5014012;28;19952;-77
2021/07/01 06:32:07;;;;;;;;;;;15.80;99.90;;;;;;5013911;28;19909;-77
2021/07/01 06:34:32;;;;;;;;;;;15.70;99.90;;;;;;5012948;28;20008;-77
2021/07/01 06:37:03;;;;;;;;;;;15.70;99.90;;;;;;5014607;28;19910;-77
2021/07/01 06:39:30;;;;;;;;;;;15.70;99.90;;;;;;5014135;28;19943;-78
2021/07/01 06:41:56;;;;;;;;;;;15.70;99.90;;;;;;5013592;28;19949;-78
2021/07/01 06:44:22;;;;;;;;;;;15.70;99.90;;;;;;5012650;28;19912;-78
2021/07/01 06:46:48;;;;;;;;;;;15.70;99.90;;;;;;5013658;28;20276;-78
2021/07/01 06:51:45;;;;;;;;;;;15.90;99.90;;;;;;5082753;23;20280;-78
2021/07/01 06:54:17;;;;;;;;;;;16.00;99.90;;;;;;5071953;28;19912;-78
2021/07/01 06:56:43;;;;;;;;;;;16.10;99.90;;;;;;5073412;28;19904;-78
2021/07/01 06:59:10;;;;;;;;;;;16.20;99.90;;;;;;5072924;28;20011;-78
2021/07/01 07:01:36;;;;;;;;;;;16.30;99.90;;;;;;5072822;28;19927;-77
2021/07/01 07:04:01;;;;;;;;;;;16.30;99.90;;;;;;5072980;28;20318;-78
2021/07/01 07:06:27;;;;;;;;;;;16.40;99.90;;;;;;5072011;28;19947;-78
2021/07/01 07:08:52;;;;;;;;;;;16.30;99.90;;;;;;5071643;28;19904;-78
2021/07/01 07:11:18;;;;;;;;;;;16.30;99.90;;;;;;5071685;28;19904;-78
2021/07/01 07:13:43;;;;;;;;;;;16.40;99.90;;;;;;5071549;28;20381;-78
2021/07/01 07:16:09;;;;;;;;;;;16.40;99.90;;;;;;5071538;28;19931;-77
2021/07/01 07:18:36;;;;;;;7.00;2.80;;;16.40;99.90;;;;;;5073143;28;19904;-78
2021/07/01 07:21:08;;;;;;;3.05;2.13;;;16.50;99.90;;;;;;5071305;28;20074;-78
2021/07/01 07:23:36;;;;;;;2.88;2.58;;;16.60;99.90;;;;;;5054922;28;20024;-78
2021/07/01 07:26:07;;;;;;;2.38;1.90;;;16.70;99.90;;;;;;5056510;28;20096;-78
2021/07/01 07:28:36;;;;;;;2.75;2.33;;;16.70;99.90;;;;;;5071896;28;20411;-78
2021/07/01 07:31:04;;;;;;;5.00;2.20;;;16.70;99.90;;;;;;5069560;28;20029;-78
2021/07/01 07:33:30;;;;;;;3.17;2.72;;;16.70;99.90;;;;;;5070910;28;20035;-78
2021/07/01 07:35:56;;;;;;;3.20;2.20;;;16.60;99.90;;;;;;5069964;28;20029;-78
2021/07/01 07:38:25;;;;;;;3.80;2.47;;;16.60;99.90;;;;;;5070830;28;20391;-78
2021/07/01 07:40:53;;;;;;;2.35;2.15;;;16.60;99.90;;;;;;5070306;28;20434;-79
2021/07/01 07:43:19;;;;;;;2.33;2.13;;;16.70;99.90;;;;;;5070097;28;20032;-77
2021/07/01 07:45:50;;;;;;;2.47;2.15;;;16.60;99.90;;;;;;5061487;28;20384;-78
2021/07/01 07:48:15;;;;;;;3.05;2.75;;;16.50;99.90;;;;;;5068346;28;20456;-78
2021/07/01 07:50:42;;;;;;;2.55;2.08;;;16.40;99.90;;;;;;5071279;28;20104;-78
2021/07/01 07:53:11;;;;;;;;;;;16.40;99.90;;;;;;5069363;28;20153;-78
2021/07/01 07:55:38;;;;;;;3.28;2.58;;;16.40;99.90;;;;;;5069127;28;19961;-78
2021/07/01 07:58:05;;;;;;;;;;;16.40;99.90;;;;;;5070346;28;20024;-78
2021/07/01 08:00:33;;;;;;;;;;;16.60;99.90;;;;;;5071153;28;19957;-78
2021/07/01 08:03:05;;;;;;;;;;;16.70;99.90;;;;;;5064025;28;19909;-78
2021/07/01 08:05:31;;;;;;;;;;;16.80;99.90;;;;;;5051049;28;20327;-78
2021/07/01 08:07:57;;;;;;;;;;;16.90;99.90;;;;;;5050500;28;20015;-79
2021/07/01 08:10:28;;;;;;;;;;;16.90;99.90;;;;;;5049214;28;20042;-78
2021/07/01 08:12:57;;;;;;;;;;;17.00;99.90;;;;;;5050953;28;20368;-78
2021/07/01 08:15:22;;;;;;;;;;;17.00;99.90;;;;;;5049656;28;19912;-79
2021/07/01 08:17:49;;;;;;;;;;;17.10;99.90;;;;;;5049687;28;19905;-78
2021/07/01 08:20:15;;;;;;;;;;;17.20;99.90;;;;;;5049556;28;19995;-78
2021/07/01 08:22:42;;;;;;;;;;;17.20;99.90;;;;;;5050685;28;19912;-78
2021/07/01 08:25:07;;;;;;;;;;;17.10;99.90;;;;;;5057180;28;19916;-78
2021/07/01 08:27:33;;;;;;;;;;;17.20;99.90;;;;;;5049309;28;19904;-78
2021/07/01 08:30:00;;;;;;;;;;;17.20;99.90;;;;;;5049511;28;19912;-78
2021/07/01 08:32:25;;;;;;;;;;;17.20;99.90;;;;;;5050575;28;19936;-78
2021/07/01 08:34:51;;;;;;;;;;;17.00;99.90;;;;;;5054453;28;20371;-78
2021/07/01 08:37:19;;;;;;;;;;;16.90;99.90;;;;;;5064008;28;19908;-78
2021/07/01 08:39:45;;;;;;;;;;;16.90;99.90;;;;;;5068101;28;19904;-78
2021/07/01 08:42:13;;;;;;;;;;;17.00;99.90;;;;;;5050451;28;19923;-78
2021/07/01 08:44:42;;;;;;;;;;;17.10;99.90;;;;;;5050872;28;19905;-79
2021/07/01 08:47:20;;;;;;;;;;;17.10;99.90;;;;;;5068367;28;19905;-79
2021/07/01 08:49:45;;;;;;;;;;;17.10;99.90;;;;;;5067881;28;20431;-78
2021/07/01 08:52:13;;;;;;;;;;;16.90;99.90;;;;;;5059288;28;19955;-78
2021/07/01 08:54:42;;;;;;;;;;;16.70;99.90;;;;;;5068376;28;19912;-78
2021/07/01 08:57:12;;;;;;;;;;;16.70;99.90;;;;;;5053418;28;19904;-77
2021/07/01 08:59:54;;;;;;;;;;;16.70;99.90;;;;;;5053646;28;19905;-78
2021/07/01 09:02:22;;;;;;;;;;;16.80;99.90;;;;;;5052816;28;19912;-77
2021/07/01 09:04:50;;;;;;;;;;;16.80;99.90;;;;;;5060528;28;19937;-77
2021/07/01 09:07:19;;;;;;;;;;;16.90;99.90;;;;;;5063740;28;19916;-77
2021/07/01 09:09:46;;;;;;;;;;;16.90;99.90;;;;;;5061989;28;19931;-77
2021/07/01 09:12:13;;;;;;;;;;;16.90;99.90;;;;;;5062833;28;19909;-78
2021/07/01 09:14:38;;;;;;;;;;;16.90;99.90;;;;;;5067873;28;20454;-78
2021/07/01 09:17:08;;;;;;;;;;;17.00;99.90;;;;;;5071408;28;19940;-77
2021/07/01 09:19:34;;;;;;;;;;;16.90;99.90;;;;;;5052800;28;20124;-77
2021/07/01 09:22:01;;;;;;;;;;;17.00;99.90;;;;;;5052487;28;20286;-78
2021/07/01 09:24:28;;;;;;;;;;;16.90;99.90;;;;;;5052793;28;19905;-77
2021/07/01 09:26:56;;;;;;;;;;;17.00;99.90;;;;;;5052438;28;19948;-78
2021/07/01 09:29:22;;;;;;;;;;;16.90;99.90;;;;;;5055160;28;20108;-77
2021/07/01 09:31:49;;;;;;;;;;;17.00;99.90;;;;;;5058757;28;19912;-77
2021/07/01 09:34:16;;;;;;;;;;;17.00;99.90;;;;;;5059784;28;19942;-77
2021/07/01 09:36:41;;;;;;;;;;;17.10;99.90;;;;;;5074208;28;20283;-78
2021/07/01 09:39:07;;;;;;;;;;;17.20;99.90;;;;;;5059760;28;19908;-77
2021/07/01 09:41:33;;;;;;;;;;;17.20;99.90;;;;;;5056953;28;19924;-77
2021/07/01 09:44:00;;;;;;;;;;;17.30;99.90;;;;;;5058243;28;19913;-78
2021/07/01 09:46:28;;;;;;;;;;;17.30;99.90;;;;;;5057276;28;20264;-78
2021/07/01 09:48:57;;;;;;;;;;;17.40;99.90;;;;;;5053729;28;19930;-77
2021/07/01 09:51:25;;;;;;;;;;;17.50;99.90;;;;;;5061310;28;19927;-77
2021/07/01 09:53:52;;;;;;;;;;;17.80;99.90;;;;;;5057659;28;19905;-77
2021/07/01 09:56:37;;;;;;;1.20;0.90;;;17.90;99.90;;;;;;5053401;28;19944;-77
2021/07/01 09:59:03;;;;;;;;;;;18.10;99.90;;;;;;5072594;28;20024;-77
2021/07/01 10:01:31;;;;;;;;;;;18.30;99.90;;;;;;5072314;28;20252;-77
2021/07/01 10:04:00;;;;;;;;;;;18.40;99.90;;;;;;5071864;28;19913;-77
2021/07/01 10:06:26;;;;;;;;;;;18.30;99.90;;;;;;5073125;28;20402;-77
2021/07/01 10:08:52;;;;;;;;;;;18.30;99.90;;;;;;5066716;28;19947;-77
2021/07/01 10:11:31;;;;;;;;;;;18.20;99.90;;;;;;5057954;28;19915;-77
2021/07/01 10:13:57;;;;;;;;;;;18.20;99.90;;;;;;5054548;28;19913;-78
2021/07/01 10:16:28;;;;;;;;;;;18.60;99.90;;;;;;5052107;28;19905;-77
2021/07/01 10:18:54;;;;;;;;;;;18.70;99.90;;;;;;5057297;28;19916;-78
2021/07/01 10:21:20;;;;;;;;;;;18.70;99.90;;;;;;5069956;28;19912;-77
2021/07/01 10:23:49;;;;;;;;;;;18.80;99.90;;;;;;5062108;28;19912;-77
2021/07/01 10:26:21;;;;;;;;;;;18.60;99.90;;;;;;5061384;28;19904;-78
2021/07/01 10:28:56;;;;;;;;;;;18.50;99.90;;;;;;5072652;28;19904;-77
2021/07/01 10:31:22;;;;;;;;;;;18.20;99.90;;;;;;5053086;28;19912;-77
2021/07/01 10:33:47;;;;;;;;;;;17.90;99.90;;;;;;5053848;28;19908;-77
2021/07/01 10:36:14;;;;;;;;;;;17.80;99.90;;;;;;5060801;28;20001;-77
2021/07/01 10:38:42;;;;;;;;;;;17.70;99.90;;;;;;5063920;28;20271;-78
2021/07/01 10:41:08;;;;;;;;;;;17.60;99.90;;;;;;5061172;28;19905;-77
2021/07/01 10:43:44;;;;;;;;;;;17.30;99.90;;;;;;5060914;28;20061;-77
2021/07/01 10:46:11;;;;;;;;;;;17.10;99.90;;;;;;5062864;28;19904;-77
2021/07/01 10:48:36;;;;;;;;;;;16.80;99.90;;;;;;5062002;28;19948;-76
2021/07/01 10:51:20;;;;;;;;;;;16.70;99.90;;;;;;5061271;28;19955;-77
2021/07/01 10:53:46;;;;;;;;;;;16.60;99.90;;;;;;5064716;28;19971;-77
2021/07/01 10:56:20;;;;;;;;;;;16.40;99.90;;;;;;5057978;28;19949;-77
2021/07/01 10:58:56;;;;;;;;;;;16.50;99.90;;;;;;5061231;28;19912;-76
2021/07/01 11:01:32;;;;;;;4.00;2.83;;;16.60;99.90;;;;;;5060621;28;19909;-77
2021/07/01 11:04:07;;;;;;;3.83;2.42;;;16.80;99.90;;;;;;5059352;28;20048;-76
2021/07/01 11:06:33;;;;;;;4.93;2.63;;;17.10;99.90;;;;;;5060551;28;20494;-77
2021/07/01 11:09:00;;;;;;;3.08;2.55;;;17.30;99.90;;;;;;5049917;28;20233;-76
2021/07/01 11:11:30;;;;;;;;;;;17.30;99.90;;;;;;5052106;28;20142;-77
2021/07/01 11:14:00;;;;;;;;;;;17.40;99.90;;;;;;5050381;28;19905;-77
2021/07/01 11:16:40;;;;;;;;;;;17.50;99.90;;;;;;5054393;28;20359;-78
2021/07/01 11:19:07;;;;;;;;;;;17.40;99.90;;;;;;5048558;28;19908;-77
2021/07/01 11:21:32;;;;;;;;;;;17.30;99.90;;;;;;5050437;28;19936;-76
2021/07/01 11:24:10;;;;;;;;;;;17.20;99.90;;;;;;5051521;28;20017;-77
2021/07/01 11:26:35;;;;;;;;;;;17.10;99.90;;;;;;5051971;28;19905;-77
2021/07/01 11:29:09;;;;;;;;;;;17.10;99.90;;;;;;5049874;28;19904;-78
2021/07/01 11:31:39;;;;;;;;;;;17.20;99.90;;;;;;5050507;28;20046;-76
2021/07/01 11:34:05;;;;;;;;;;;17.20;99.90;;;;;;5056836;28;19960;-77
2021/07/01 11:36:31;;;;;;;;;;;17.40;99.90;;;;;;5070006;28;19908;-78
2021/07/01 11:39:07;;;;;;;;;;;17.60;99.90;;;;;;5067950;28;19930;-76
2021/07/01 11:41:33;;;;;;;;;;;17.80;99.90;;;;;;5059976;28;19914;-77
2021/07/01 11:43:58;;;;;;;;;;;17.90;99.90;;;;;;5056161;28;19908;-77
2021/07/01 11:46:24;;;;;;;;;;;17.80;99.90;;;;;;5059811;28;19908;-77
2021/07/01 11:48:52;;;;;;;;;;;17.70;99.90;;;;;;5055889;28;20351;-77
2021/07/01 11:51:20;;;;;;;;;;;17.50;99.90;;;;;;5053312;28;19955;-76
2021/07/01 11:53:47;;;;;;;;;;;17.40;99.90;;;;;;5054362;28;19908;-77
2021/07/01 11:56:12;;;;;;;;;;;17.50;99.90;;;;;;5052282;28;19963;-77
2021/07/01 11:58:38;;;;;;;;;;;17.50;99.90;;;;;;5057148;28;20359;-77
2021/07/01 12:01:04;;;;;;;;;;;17.60;99.90;;;;;;5072396;28;20430;-77
2021/07/01 12:03:29;;;;;;;;;;;17.70;99.90;;;;;;5072199;28;19972;-77
2021/07/01 12:05:56;;;;;;;;;;;17.80;99.90;;;;;;5072853;28;19905;-77
2021/07/01 12:08:22;;;;;;;;;;;18.00;99.90;;;;;;5070604;28;19911;-77
2021/07/01 12:10:57;;;;;;;;;;;18.10;99.90;;;;;;5064866;28;19904;-77
2021/07/01 12:13:31;;;;;;;;;;;18.00;99.90;;;;;;5051682;28;19909;-77
2021/07/01 12:16:01;;;;;;;;;;;18.10;99.90;;;;;;5051857;28;19962;-77
2021/07/01 12:18:45;;;;;;;;;;;18.20;99.90;;;;;;5050521;28;19909;-77
2021/07/01 12:21:11;;;;;;;;;;;18.40;99.90;;;;;;5055010;28;20370;-77
2021/07/01 12:23:44;;;;;;;3.75;1.75;;;18.70;99.90;;;;;;5051222;28;20051;-77
2021/07/01 12:26:28;;;;;;;;;;;18.90;99.90;;;;;;5052199;28;20092;-78
2021/07/01 12:28:54;;;;;;;;;;;18.80;99.90;;;;;;5056056;28;19952;-78
2021/07/01 12:31:26;;;;;;;;;;;18.60;99.90;;;;;;5071377;28;19909;-77
2021/07/01 12:33:56;;;;;;;;;;;18.40;99.90;;;;;;5071172;28;20264;-78
2021/07/01 12:36:22;;;;;;;;;;;18.40;99.90;;;;;;5070877;28;19948;-77
2021/07/01 12:39:25;;;;;;;;;;;18.80;99.90;;;;;;5070727;28;19908;-79
2021/07/01 12:41:55;;;;;;;;;;;19.00;99.90;;;;;;5071465;28;19912;-78
2021/07/01 12:44:36;;;;;;;;;;;19.10;99.90;;;;;;5070482;28;19990;-77
2021/07/01 12:47:11;;;;;;;;;;;19.10;99.90;;;;;;5066351;28;19908;-78
2021/07/01 12:49:37;;;;;;;;;;;19.00;99.90;;;;;;5051655;28;19943;-77
2021/07/01 12:52:07;;;;;;;;;;;18.80;99.90;;;;;;5050183;28;19939;-77
2021/07/01 12:54:32;;;;;;;;;;;18.80;99.90;;;;;;5050288;28;19915;-77
2021/07/01 12:56:59;;;;;;;;;;;18.70;99.90;;;;;;5050595;28;20291;-77
2021/07/01 12:59:26;;;;;;;;;;;18.80;99.90;;;;;;5051518;28;19909;-78
2021/07/01 13:01:52;;;;;;;;;;;18.90;99.90;;;;;;5050922;28;19970;-77
2021/07/01 13:04:24;;;;;;;;;;;19.00;99.90;;;;;;5051981;28;19913;-78
2021/07/01 13:06:51;;;;;;;;;;;19.30;99.90;;;;;;5050753;28;19909;-78
2021/07/01 13:09:29;;;;;;;;;;;19.40;99.90;;;;;;5050375;28;19909;-78
2021/07/01 13:11:55;;;;;;;;;;;19.40;99.90;;;;;;5050071;28;20046;-77
2021/07/01 13:14:25;;;;;;;;;;;19.60;99.90;;;;;;5050616;28;20390;-77
2021/07/01 13:17:00;;;;;;;;;;;19.70;99.90;;;;;;5050452;28;20434;-78
2021/07/01 13:19:25;;;;;;;;;;;19.90;99.90;;;;;;5050147;28;19909;-78
2021/07/01 13:21:52;;;;;;;;;;;19.80;99.90;;;;;;5051276;28;19935;-80
2021/07/01 13:24:18;;;;;;;;;;;19.80;99.90;;;;;;5051080;28;19909;-78
2021/07/01 13:26:43;;;;;;;;;;;20.20;99.90;;;;;;5053870;28;19932;-78
2021/07/01 13:29:09;;;;;;;;;;;20.50;99.90;;;;;;5051684;28;19913;-80
2021/07/01 13:31:34;;;;;;;;;;;20.60;99.90;;;;;;5051627;28;19915;-76
2021/07/01 13:34:06;;;;;;;;;;;20.50;99.90;;;;;;5071919;28;20372;-78
2021/07/01 13:36:31;;;;;;;;;;;20.30;99.90;;;;;;5055033;28;20322;-77
2021/07/01 13:38:57;;;;;;;;;;;20.00;99.90;;;;;;5071568;28;19913;-77
2021/07/01 13:41:26;;;;;;;;;;;19.90;99.90;;;;;;5055933;28;19912;-77
2021/07/01 13:43:51;;;;;;;;;;;19.80;99.90;;;;;;5054258;28;20279;-77
2021/07/01 13:46:19;;;;;;;;;;;19.70;99.90;;;;;;5054408;28;20371;-77
2021/07/01 13:48:45;;;;;;;;;;;19.50;99.90;;;;;;5055252;28;19909;-77
2021/07/01 13:51:10;;;;;;;;;;;19.40;99.90;;;;;;5071222;28;19923;-78
2021/07/01 13:53:37;;;;;;;;;;;19.40;99.90;;;;;;5054204;28;19916;-78
2021/07/01 13:56:07;;;;;;;;;;;19.40;99.90;;;;;;5071357;28;19912;-78
2021/07/01 13:58:33;;;;;;;;;;;19.40;99.90;;;;;;5055438;28;19940;-78
2021/07/01 14:01:00;;;;;;;;;;;19.30;99.90;;;;;;5053826;28;20374;-77
2021/07/01 14:03:27;;;;;;;;;;;19.10;99.90;;;;;;5053869;28;20005;-77
2021/07/01 14:05:53;;;;;;;;;;;19.00;99.90;;;;;;5072493;28;19916;-78
2021/07/01 14:08:26;;;;;;;;;;;19.00;99.90;;;;;;5063055;28;19999;-77
2021/07/01 14:11:11;;;;;;;;;;;18.90;99.90;;;;;;5055449;28;20323;-78